createdAt,value
2018-12-31T12:11:58.810Z,99679.68
2018-12-31T12:14:31.835Z,99677.03
2018-12-31T12:17:03.990Z,99679.91
2018-12-31T12:19:37.034Z,99679.84
2018-12-31T12:22:09.197Z,99676.80
2018-12-31T12:24:42.386Z,99676.05
2018-12-31T12:27:14.746Z,99670.55
2018-12-31T12:29:46.894Z,99667.81
2018-12-31T12:32:19.820Z,99671.84
2018-12-31T12:34:59.306Z,99669.75
2018-12-31T12:37:31.769Z,99674.54
2018-12-31T12:40:08.410Z,99680.09
2018-12-31T12:42:42.998Z,99690.83
2018-12-31T12:45:15.548Z,99692.95
2018-12-31T12:47:47.542Z,99699.92
2018-12-31T12:50:20.004Z,99699.97
2018-12-31T12:52:59.554Z,99698.23
2018-12-31T12:55:31.927Z,99700.23
2018-12-31T12:58:04.423Z,99699.77
2018-12-31T13:00:38.517Z,99701.25
2018-12-31T13:03:17.495Z,99705.97
2018-12-31T13:10:35.855Z,99705.77
2018-12-31T13:13:08.055Z,99710.04
2018-12-31T13:15:57.475Z,99716.36
2018-12-31T13:18:30.092Z,99716.92
2018-12-31T13:21:01.902Z,99712.89
2018-12-31T13:23:34.410Z,99707.70
2018-12-31T13:26:06.801Z,99714.67
2018-12-31T13:28:39.311Z,99721.28
2018-12-31T13:31:12.012Z,99714.77
2018-12-31T13:33:48.282Z,99709.35
2018-12-31T13:36:20.743Z,99701.28
2018-12-31T13:38:54.009Z,99706.73
2018-12-31T13:41:26.197Z,99700.48
2018-12-31T13:43:58.632Z,99690.83
2018-12-31T13:46:31.795Z,99692.14
2018-12-31T13:49:03.903Z,99693.33
2018-12-31T13:51:38.540Z,99698.52
2018-12-31T13:54:10.938Z,99700.84
2018-12-31T13:56:45.022Z,99701.16
2018-12-31T13:59:17.878Z,99709.24
2018-12-31T14:01:50.746Z,99706.36
2018-12-31T14:04:22.990Z,99706.64
2018-12-31T14:06:54.939Z,99704.05
2018-12-31T14:09:27.588Z,99703.70
2018-12-31T14:12:00.148Z,99704.10
2018-12-31T14:14:32.528Z,99709.45
2018-12-31T14:17:05.990Z,99710.87
2018-12-31T14:19:43.261Z,99714.95
2018-12-31T14:22:16.984Z,99725.79
2018-12-31T14:24:50.814Z,99731.29
2018-12-31T14:27:25.820Z,99726.20
2018-12-31T14:29:58.800Z,99729.11
2018-12-31T14:32:34.093Z,99732.45
2018-12-31T14:35:07.702Z,99739.27
2018-12-31T14:37:40.925Z,99739.94
2018-12-31T14:40:13.278Z,99739.11
2018-12-31T14:42:45.201Z,99742.64
2018-12-31T14:45:17.954Z,99749.66
2018-12-31T14:47:50.091Z,99747.01
2018-12-31T14:50:22.371Z,99746.80
2018-12-31T14:52:54.757Z,99743.09
2018-12-31T14:55:27.417Z,99750.98
2018-12-31T14:58:01.412Z,99755.16
2018-12-31T15:00:33.788Z,99755.92
2018-12-31T15:03:06.326Z,99760.05
2018-12-31T15:05:38.114Z,99760.75
2018-12-31T15:08:10.787Z,99762.01
2018-12-31T15:10:43.116Z,99757.44
2018-12-31T15:13:14.922Z,99766.08
2018-12-31T15:15:47.281Z,99761.15
2018-12-31T15:18:19.931Z,99767.50
2018-12-31T15:20:51.712Z,99761.91
2018-12-31T15:23:24.988Z,99763.23
2018-12-31T15:25:58.680Z,99757.87
2018-12-31T15:28:31.453Z,99764.13
2018-12-31T15:31:03.247Z,99764.53
2018-12-31T15:33:35.709Z,99767.53
2018-12-31T15:36:08.056Z,99764.56
2018-12-31T15:38:40.796Z,99767.14
2018-12-31T15:41:12.691Z,99763.77
2018-12-31T15:43:45.479Z,99769.62
2018-12-31T15:46:20.445Z,99768.50
2018-12-31T15:48:53.360Z,99774.94
2018-12-31T15:51:28.513Z,99784.83
2018-12-31T15:54:01.493Z,99786.45
2018-12-31T15:56:33.612Z,99785.91
2018-12-31T15:59:06.000Z,99780.98
2018-12-31T16:01:38.440Z,99777.39
2018-12-31T16:04:10.935Z,99778.15
2018-12-31T16:06:43.690Z,99779.11
2018-12-31T16:09:15.836Z,99779.50
2018-12-31T16:11:48.194Z,99771.30
2018-12-31T16:14:20.612Z,99765.34
2018-12-31T16:16:52.977Z,99761.09
2018-12-31T16:19:25.373Z,99760.82
2018-12-31T16:21:57.997Z,99761.94
2018-12-31T16:24:30.257Z,99769.41
2018-12-31T16:27:03.596Z,99765.72
2018-12-31T16:29:37.374Z,99774.05
2018-12-31T16:32:09.729Z,99767.43
2018-12-31T16:34:42.113Z,99768.75
2018-12-31T16:37:14.580Z,99778.57
2018-12-31T16:39:47.383Z,99781.98
2018-12-31T16:42:19.452Z,99780.84
2018-12-31T16:44:51.839Z,99777.91
2018-12-31T16:47:24.239Z,99784.61
2018-12-31T16:49:56.979Z,99783.86
2018-12-31T16:52:30.260Z,99782.63
2018-12-31T16:55:03.116Z,99783.29
2018-12-31T16:57:35.317Z,99778.50
2018-12-31T17:00:08.381Z,99787.45
2018-12-31T17:02:40.838Z,99786.70
2018-12-31T17:05:13.203Z,99782.56
2018-12-31T17:07:45.399Z,99785.01
2018-12-31T17:10:17.626Z,99787.09
2018-12-31T17:12:49.902Z,99782.75
2018-12-31T17:15:22.429Z,99782.09
2018-12-31T17:17:54.826Z,99785.78
2018-12-31T17:20:26.637Z,99783.31
2018-12-31T17:22:59.048Z,99783.05
2018-12-31T17:25:31.412Z,99786.15
2018-12-31T17:28:04.336Z,99787.56
2018-12-31T17:30:36.558Z,99788.26
2018-12-31T17:33:08.357Z,99791.27
2018-12-31T17:35:43.087Z,99779.20
2018-12-31T17:38:16.608Z,99788.81
2018-12-31T17:40:47.488Z,99789.38
2018-12-31T17:43:19.223Z,99789.96
2018-12-31T17:45:51.924Z,99790.33
2018-12-31T17:48:24.128Z,99791.47
2018-12-31T17:50:56.180Z,99791.84
2018-12-31T17:53:28.832Z,99797.13
2018-12-31T17:56:01.179Z,99795.44
2018-12-31T17:58:36.452Z,99794.12
2018-12-31T18:01:09.271Z,99792.03
2018-12-31T18:03:41.385Z,99799.86
2018-12-31T18:06:13.840Z,99798.18
2018-12-31T18:08:46.533Z,99793.84
2018-12-31T18:11:24.011Z,99798.00
2018-12-31T18:13:56.488Z,99790.34
2018-12-31T18:16:28.845Z,99793.17
2018-12-31T18:19:01.199Z,99795.45
2018-12-31T18:21:33.635Z,99795.27
2018-12-31T18:24:06.008Z,99798.46
2018-12-31T18:26:38.387Z,99800.34
2018-12-31T18:29:11.150Z,99810.36
2018-12-31T18:31:49.464Z,99813.36
2018-12-31T18:34:40.170Z,99809.99
2018-12-31T18:37:30.791Z,99804.30
2018-12-31T18:40:22.321Z,99789.95
2018-12-31T18:43:12.826Z,99797.52
2018-12-31T18:46:03.301Z,99796.20
2018-12-31T18:48:54.263Z,99795.24
2018-12-31T18:51:45.042Z,99799.20
2018-12-31T18:54:35.447Z,99801.22
2018-12-31T18:57:26.041Z,99804.91
2018-12-31T19:00:16.711Z,99808.01
2018-12-31T19:03:07.369Z,99802.63
2018-12-31T19:05:58.443Z,99814.70
2018-12-31T19:08:48.907Z,99814.80
2018-12-31T19:11:39.414Z,99806.31
2018-12-31T19:14:30.340Z,99808.29
2018-12-31T19:17:20.743Z,99809.80
2018-12-31T19:20:11.556Z,99812.34
2018-12-31T19:23:02.667Z,99815.45
2018-12-31T19:25:53.441Z,99813.77
2018-12-31T19:28:44.420Z,99810.35
2018-12-31T19:31:35.085Z,99825.28
2018-12-31T19:34:26.073Z,99823.47
2018-12-31T19:37:16.639Z,99825.28
2018-12-31T19:40:07.347Z,99823.96
2018-12-31T19:42:58.259Z,99822.05
2018-12-31T19:45:48.947Z,99825.09
2018-12-31T19:48:39.929Z,99820.36
2018-12-31T19:51:30.432Z,99823.01
2018-12-31T19:54:20.875Z,99819.91
2018-12-31T19:57:11.254Z,99823.56
2018-12-31T20:00:01.826Z,99816.77
2018-12-31T20:02:52.338Z,99805.06
2018-12-31T20:05:43.071Z,99803.20
2018-12-31T20:08:36.674Z,99798.86
2018-12-31T20:11:27.163Z,99792.98
2018-12-31T20:14:17.735Z,99800.45
2018-12-31T20:17:08.312Z,99793.58
2018-12-31T20:19:58.807Z,99788.66
2018-12-31T20:22:49.688Z,99787.80
2018-12-31T20:25:40.519Z,99787.34
2018-12-31T20:28:31.241Z,99792.35
2018-12-31T20:31:22.048Z,99787.63
2018-12-31T20:34:12.516Z,99793.58
2018-12-31T20:37:02.900Z,99794.78
2018-12-31T20:39:53.178Z,99790.72
2018-12-31T20:42:43.847Z,99791.22
2018-12-31T20:45:34.257Z,99795.64
2018-12-31T20:48:24.951Z,99794.05
2018-12-31T20:51:15.620Z,99794.70
2018-12-31T20:54:06.198Z,99792.63
2018-12-31T20:56:56.791Z,99786.22
2018-12-31T20:59:39.010Z,99786.13
2018-12-31T21:02:10.894Z,99790.37
2018-12-31T21:04:43.351Z,99782.63
2018-12-31T21:07:15.856Z,99786.31
2018-12-31T21:09:48.240Z,99780.16
2018-12-31T21:12:20.647Z,99780.66
2018-12-31T21:14:53.046Z,99778.20
2018-12-31T21:17:25.466Z,99775.92
2018-12-31T21:19:57.872Z,99772.72
2018-12-31T21:22:30.262Z,99771.01
2018-12-31T21:25:02.638Z,99774.33
2018-12-31T21:27:35.138Z,99776.60
2018-12-31T21:30:10.690Z,99785.27
2018-12-31T21:32:43.081Z,99780.06
2018-12-31T21:35:15.711Z,99789.50
2018-12-31T21:37:47.987Z,99783.47
2018-12-31T21:40:20.383Z,99783.84
2018-12-31T21:42:52.797Z,99783.66
2018-12-31T21:45:25.193Z,99776.59
2018-12-31T21:47:57.426Z,99775.64
2018-12-31T21:50:29.795Z,99774.41
2018-12-31T21:53:02.655Z,99781.88
2018-12-31T21:55:34.842Z,99777.92
2018-12-31T21:58:07.286Z,99780.47
2018-12-31T22:00:39.862Z,99789.22
2018-12-31T22:03:11.700Z,99779.97
2018-12-31T22:05:44.105Z,99778.28
2018-12-31T22:08:16.532Z,99787.16
2018-12-31T22:10:48.943Z,99784.02
2018-12-31T22:13:21.515Z,99775.55
2018-12-31T22:15:53.874Z,99769.41
2018-12-31T22:18:26.392Z,99767.71
2018-12-31T22:20:58.795Z,99765.44
2018-12-31T22:23:31.219Z,99761.88
2018-12-31T22:26:03.576Z,99761.48
2018-12-31T22:28:37.051Z,99763.75
2018-12-31T22:31:07.932Z,99765.84
2018-12-31T22:33:39.665Z,99762.80
2018-12-31T22:36:12.073Z,99761.02
2018-12-31T22:38:44.711Z,99763.75
2018-12-31T22:41:16.532Z,99761.11
2018-12-31T22:43:49.071Z,99759.42
2018-12-31T22:46:21.468Z,99759.02
2018-12-31T22:48:53.851Z,99758.10
2018-12-31T22:51:26.429Z,99756.38
2018-12-31T22:53:58.860Z,99761.66
2018-12-31T22:56:31.665Z,99756.87
2018-12-31T22:59:03.908Z,99752.05
2018-12-31T23:01:36.247Z,99754.33
2018-12-31T23:04:08.641Z,99755.16
2018-12-31T23:06:42.820Z,99750.00
2018-12-31T23:09:17.155Z,99748.68
2018-12-31T23:11:49.685Z,99750.92
2018-12-31T23:14:22.183Z,99746.50
2018-12-31T23:17:03.789Z,99746.03
2018-12-31T23:19:41.667Z,99742.17
2018-12-31T23:22:10.821Z,99735.56
2018-12-31T23:24:43.288Z,99736.39
2018-12-31T23:27:15.811Z,99736.39
2018-12-31T23:29:48.252Z,99741.31
2018-12-31T23:32:20.713Z,99736.39
2018-12-31T23:34:53.398Z,99743.48
2018-12-31T23:37:25.897Z,99734.34
2018-12-31T23:39:58.330Z,99737.90
2018-12-31T23:42:30.811Z,99735.26
2018-12-31T23:45:03.425Z,99735.66
2018-12-31T23:47:35.840Z,99725.65
2018-12-31T23:50:10.880Z,99720.27
2018-12-31T23:52:45.330Z,99732.06
2018-12-31T23:55:17.741Z,99734.70
2018-12-31T23:57:50.133Z,99728.84
